Time;durP1;ratioP1;P1;durP2;ratioP2;P2;SDS_P1;SDS_P2;PMS_P1;PMS_P2;Temp;Humidity;BMP_temperature;BMP_pressure;BME280_temperature;BME280_humidity;BME280_pressure;Samples;Min_cycle;Max_cycle;Signal;HPM_P1;HPM_P2
2023/06/26 00:02:24;;;;;;;2.47;2.28;;;;;;;;;;6214786;23;20276;-84
2023/06/26 00:04:54;;;;;;;2.38;2.17;;;;;;;;;;6215033;23;20229;-84
2023/06/26 00:07:21;;;;;;;2.33;2.13;;;;;;;;;;6215685;23;20197;-84
2023/06/26 00:09:49;;;;;;;2.50;2.30;;;;;;;;;;6214820;23;20575;-85
2023/06/26 00:12:16;;;;;;;2.65;2.42;;;;;;;;;;6215631;23;20197;-84
2023/06/26 00:14:44;;;;;;;2.33;2.13;;;;;;;;;;6215530;23;20178;-84
2023/06/26 00:17:12;;;;;;;1.90;1.80;;;;;;;;;;6214688;23;20273;-92
2023/06/26 00:19:39;;;;;;;2.10;2.00;;;;;;;;;;6215850;23;20585;-90
2023/06/26 00:22:08;;;;;;;2.85;2.65;;;;;;;;;;6216161;23;20228;-90
2023/06/26 00:24:36;;;;;;;2.08;1.98;;;;;;;;;;6216241;23;20552;-90
2023/06/26 00:27:03;;;;;;;2.38;2.22;;;;;;;;;;6215954;23;20220;-91
2023/06/26 00:29:31;;;;;;;2.45;2.30;;;;;;;;;;6215901;23;20256;-89
2023/06/26 00:31:58;;;;;;;2.55;2.35;;;;;;;;;;6216304;23;20177;-91
2023/06/26 00:34:25;;;;;;;2.65;2.35;;;;;;;;;;6216010;23;20179;-90
2023/06/26 00:36:53;;;;;;;2.53;2.33;;;;;;;;;;6215777;23;20201;-90
2023/06/26 00:39:22;;;;;;;2.83;2.63;;;;;;;;;;6215740;23;20402;-91
2023/06/26 00:41:50;;;;;;;2.65;2.45;;;;;;;;;;6215786;23;20240;-90
2023/06/26 00:44:17;;;;;;;2.42;2.22;;;;;;;;;;6215821;23;20178;-90
2023/06/26 00:46:44;;;;;;;2.85;2.33;;;;;;;;;;6215512;23;20261;-92
2023/06/26 00:49:12;;;;;;;2.53;2.42;;;;;;;;;;6215583;23;20170;-92
2023/06/26 00:51:40;;;;;;;2.85;2.03;;;;;;;;;;6215592;23;20201;-93
2023/06/26 00:54:07;;;;;;;2.03;1.92;;;;;;;;;;6215778;23;20205;-92
2023/06/26 00:56:36;;;;;;;1.85;1.75;;;;;;;;;;6216206;23;20624;-93
2023/06/26 00:59:04;;;;;;;2.60;2.40;;;;;;;;;;6215285;23;20190;-93
2023/06/26 01:01:31;;;;;;;2.70;2.50;;;;;;;;;;6215420;23;20176;-92
2023/06/26 01:03:58;;;;;;;2.60;2.40;;;;;;;;;;6215696;23;20655;-92
2023/06/26 01:06:30;;;;;;;2.33;2.17;;;;;;;;;;6215553;23;20498;-92
2023/06/26 01:08:59;;;;;;;2.63;2.42;;;;;;;;;;6214986;23;20232;-92
2023/06/26 01:11:27;;;;;;;2.72;2.53;;;;;;;;;;6215064;23;20170;-93
2023/06/26 01:13:56;;;;;;;2.72;2.53;;;;;;;;;;6215785;23;20204;-92
2023/06/26 01:16:24;;;;;;;2.03;1.92;;;;;;;;;;6215176;23;20232;-91
2023/06/26 01:18:52;;;;;;;2.50;2.30;;;;;;;;;;6215072;23;20233;-92
2023/06/26 01:21:20;;;;;;;2.30;2.15;;;;;;;;;;6215567;23;20260;-92
2023/06/26 01:24:04;;;;;;;2.30;2.10;;;;;;;;;;6215567;23;20668;-92
2023/06/26 01:26:35;;;;;;;2.63;2.40;;;;;;;;;;6215225;23;20276;-93
2023/06/26 01:29:03;;;;;;;2.80;2.58;;;;;;;;;;6214918;23;20190;-92
2023/06/26 01:31:32;;;;;;;2.63;2.42;;;;;;;;;;6215917;23;20520;-92
2023/06/26 01:34:00;;;;;;;2.10;2.00;;;;;;;;;;6216499;23;20224;-92
2023/06/26 01:36:29;;;;;;;1.95;1.85;;;;;;;;;;6215994;23;20201;-91
2023/06/26 01:38:56;;;;;;;2.72;2.55;;;;;;;;;;6215192;23;20272;-92
2023/06/26 01:41:24;;;;;;;2.25;2.15;;;;;;;;;;6215381;23;20181;-92
2023/06/26 01:44:07;;;;;;;2.50;2.30;;;;;;;;;;6215129;23;20197;-93
2023/06/26 01:46:42;;;;;;;2.28;2.10;;;;;;;;;;6215790;23;20242;-90
2023/06/26 01:49:17;;;;;;;2.45;2.33;;;;;;;;;;6215221;23;20169;-92
2023/06/26 01:51:48;;;;;;;2.78;2.58;;;;;;;;;;6215515;23;20156;-91
2023/06/26 01:54:20;;;;;;;2.90;2.70;;;;;;;;;;6215343;23;20173;-93
2023/06/26 01:56:51;;;;;;;2.97;2.78;;;;;;;;;;6215218;23;20170;-93
2023/06/26 01:59:20;;;;;;;2.47;2.28;;;;;;;;;;6214845;23;20161;-92
2023/06/26 02:01:48;;;;;;;2.83;2.63;;;;;;;;;;6215104;23;20180;-92
2023/06/26 02:04:16;;;;;;;2.92;2.72;;;;;;;;;;6215380;23;20229;-93
2023/06/26 02:06:43;;;;;;;2.47;2.30;;;;;;;;;;6215524;23;20284;-92
2023/06/26 02:09:10;;;;;;;2.60;2.40;;;;;;;;;;6215511;23;20264;-92
2023/06/26 02:11:38;;;;;;;2.65;2.45;;;;;;;;;;6215006;23;20194;-92
2023/06/26 02:14:05;;;;;;;2.80;2.60;;;;;;;;;;6214468;23;20248;-92
2023/06/26 02:16:34;;;;;;;3.55;3.05;;;;;;;;;;6215108;23;20174;-92
2023/06/26 02:19:02;;;;;;;2.83;2.63;;;;;;;;;;6214305;23;20276;-93
2023/06/26 02:21:29;;;;;;;2.97;2.78;;;;;;;;;;6215256;23;20640;-91
2023/06/26 02:23:56;;;;;;;2.60;2.40;;;;;;;;;;6215137;23;20276;-93
2023/06/26 02:26:24;;;;;;;2.92;2.72;;;;;;;;;;6216244;23;20209;-92
2023/06/26 02:28:52;;;;;;;3.55;3.25;;;;;;;;;;6216915;23;20204;-93
2023/06/26 02:31:19;;;;;;;2.83;2.63;;;;;;;;;;6217750;23;20264;-90
2023/06/26 02:33:49;;;;;;;3.70;3.40;;;;;;;;;;6217412;23;20208;-92
2023/06/26 02:36:16;;;;;;;4.47;3.53;;;;;;;;;;6216985;23;20224;-93
2023/06/26 02:38:44;;;;;;;4.18;3.47;;;;;;;;;;6216863;23;20212;-92
2023/06/26 02:41:11;;;;;;;3.47;3.17;;;;;;;;;;6217078;23;20228;-91
2023/06/26 02:43:39;;;;;;;3.53;3.22;;;;;;;;;;6216979;23;20723;-92
2023/06/26 02:46:08;;;;;;;3.35;3.15;;;;;;;;;;6217163;23;20256;-92
2023/06/26 02:48:36;;;;;;;3.47;3.17;;;;;;;;;;6216123;23;20198;-92
2023/06/26 02:51:05;;;;;;;3.55;3.25;;;;;;;;;;6217021;23;20281;-92
2023/06/26 02:53:33;;;;;;;3.58;3.28;;;;;;;;;;6216668;23;20170;-92
2023/06/26 02:56:00;;;;;;;4.70;4.07;;;;;;;;;;6216577;23;20260;-91
2023/06/26 02:58:28;;;;;;;3.85;3.45;;;;;;;;;;6216439;23;20221;-92
2023/06/26 03:00:56;;;;;;;3.80;3.50;;;;;;;;;;6215820;23;20213;-92
2023/06/26 03:03:23;;;;;;;4.18;3.88;;;;;;;;;;6216393;23;20190;-93
2023/06/26 03:05:51;;;;;;;3.67;3.38;;;;;;;;;;6216628;23;20632;-92
2023/06/26 03:08:20;;;;;;;4.38;3.50;;;;;;;;;;6215994;23;20269;-92
2023/06/26 03:10:47;;;;;;;3.20;3.00;;;;;;;;;;6216429;23;20170;-92
2023/06/26 03:13:15;;;;;;;4.32;3.92;;;;;;;;;;6216761;23;20201;-92
2023/06/26 03:15:42;;;;;;;2.92;2.72;;;;;;;;;;6216685;23;20224;-91
2023/06/26 03:18:10;;;;;;;3.10;2.80;;;;;;;;;;6216626;23;20767;-92
2023/06/26 03:20:37;;;;;;;3.10;2.90;;;;;;;;;;6216729;23;20178;-92
2023/06/26 03:23:05;;;;;;;3.47;3.15;;;;;;;;;;6216372;23;20244;-92
2023/06/26 03:25:34;;;;;;;3.40;3.10;;;;;;;;;;6216449;23;20205;-91
2023/06/26 03:28:01;;;;;;;3.97;3.67;;;;;;;;;;6215981;23;20233;-92
2023/06/26 03:30:29;;;;;;;3.80;3.50;;;;;;;;;;6216146;23;20196;-93
2023/06/26 03:32:56;;;;;;;2.92;2.72;;;;;;;;;;6216869;23;20205;-92
2023/06/26 03:35:24;;;;;;;3.20;3.00;;;;;;;;;;6215918;23;20205;-92
2023/06/26 03:37:52;;;;;;;3.25;3.05;;;;;;;;;;6216633;23;20228;-92
2023/06/26 03:40:19;;;;;;;3.35;3.15;;;;;;;;;;6216652;23;20612;-92
2023/06/26 03:42:48;;;;;;;2.85;2.65;;;;;;;;;;6216511;23;20201;-90
2023/06/26 03:45:16;;;;;;;2.28;2.17;;;;;;;;;;6216636;23;20233;-92
2023/06/26 03:47:43;;;;;;;2.95;2.65;;;;;;;;;;6216307;23;20189;-91
2023/06/26 03:50:11;;;;;;;2.60;2.40;;;;;;;;;;6216541;23;20540;-92
2023/06/26 03:52:38;;;;;;;3.60;3.30;;;;;;;;;;6216758;23;20256;-93
2023/06/26 03:55:07;;;;;;;3.15;2.85;;;;;;;;;;6216148;23;20204;-92
2023/06/26 03:57:34;;;;;;;2.15;1.95;;;;;;;;;;6216019;23;20214;-92
2023/06/26 04:00:08;;;;;;;2.97;2.70;;;;;;;;;;6216422;23;20560;-93
2023/06/26 04:02:35;;;;;;;2.85;2.65;;;;;;;;;;6216832;23;20165;-91
2023/06/26 04:05:04;;;;;;;4.05;3.65;;;;;;;;;;6215627;23;20228;-92
2023/06/26 04:07:32;;;;;;;2.97;2.72;;;;;;;;;;6215791;23;20249;-92
2023/06/26 04:09:59;;;;;;;2.70;2.50;;;;;;;;;;6216245;23;20248;-89
2023/06/26 04:12:27;;;;;;;2.88;2.67;;;;;;;;;;6215397;23;20292;-92
2023/06/26 04:14:54;;;;;;;2.50;2.30;;;;;;;;;;6216430;23;20245;-92
2023/06/26 04:17:23;;;;;;;2.72;2.53;;;;;;;;;;6215686;23;20217;-91
2023/06/26 04:19:51;;;;;;;2.67;2.58;;;;;;;;;;6216158;23;20609;-92
2023/06/26 04:22:18;;;;;;;2.70;2.40;;;;;;;;;;6216087;23;20253;-91
2023/06/26 04:24:47;;;;;;;2.33;2.22;;;;;;;;;;6216074;23;20281;-91
2023/06/26 04:27:14;;;;;;;3.53;3.22;;;;;;;;;;6216021;23;20200;-91
2023/06/26 04:29:42;;;;;;;4.13;3.28;;;;;;;;;;6215892;23;20477;-91
2023/06/26 04:32:09;;;;;;;3.97;3.60;;;;;;;;;;6215703;23;20249;-91
2023/06/26 04:34:41;;;;;;;4.32;4.03;;;;;;;;;;6215321;23;20261;-92
2023/06/26 04:37:09;;;;;;;3.47;3.17;;;;;;;;;;6215392;23;20200;-92
2023/06/26 04:39:38;;;;;;;4.00;3.70;;;;;;;;;;6215003;23;20170;-91
2023/06/26 04:42:07;;;;;;;3.70;3.40;;;;;;;;;;6216000;23;20566;-84
2023/06/26 04:44:34;;;;;;;3.38;3.08;;;;;;;;;;6216961;23;20201;-83
2023/06/26 04:47:02;;;;;;;4.93;3.83;;;;;;;;;;6216543;23;20252;-83
2023/06/26 04:49:30;;;;;;;2.90;2.70;;;;;;;;;;6221480;23;20170;-84
2023/06/26 04:51:59;;;;;;;4.18;3.88;;;;;;;;;;6217316;23;20768;-84
2023/06/26 04:54:28;;;;;;;3.45;3.25;;;;;;;;;;6217019;23;20531;-83
2023/06/26 04:56:56;;;;;;;3.33;3.05;;;;;;;;;;6216913;23;20181;-83
2023/06/26 04:59:24;;;;;;;3.58;3.28;;;;;;;;;;6216280;23;20188;-84
2023/06/26 05:01:51;;;;;;;3.58;3.28;;;;;;;;;;6215384;23;20201;-84
2023/06/26 05:04:19;;;;;;;3.10;2.90;;;;;;;;;;6214167;23;20201;-83
2023/06/26 05:06:46;;;;;;;4.13;3.80;;;;;;;;;;6215454;23;20197;-84
2023/06/26 09:07:14;;;;;;;14.25;12.85;;;;;;;;;;6279289;22;1399487;-89
2023/06/26 09:09:42;;;;;;;8.05;7.35;;;;;;;;;;6321743;22;20714;-87
2023/06/26 09:12:11;;;;;;;5.05;4.65;;;;;;;;;;6321169;22;20198;-87
2023/06/26 09:14:39;;;;;;;4.78;4.45;;;;;;;;;;6320523;22;20217;-89
2023/06/26 09:27:31;;;;;;;4.80;4.40;;;;;;;;;;6296188;22;20792;-87
2023/06/26 09:29:59;;;;;;;3.75;3.50;;;;;;;;;;6326335;22;20167;-93
2023/06/26 09:32:27;;;;;;;3.63;3.42;;;;;;;;;;6332856;22;20215;-91
2023/06/26 09:34:56;;;;;;;3.63;3.33;;;;;;;;;;6325336;22;20210;-93
2023/06/26 09:37:24;;;;;;;4.97;4.57;;;;;;;;;;6315379;22;20194;-94
2023/06/26 09:39:53;;;;;;;4.80;4.50;;;;;;;;;;6312109;22;20170;-93
2023/06/26 09:42:21;;;;;;;5.07;4.72;;;;;;;;;;6308505;22;20172;-90
2023/06/26 09:44:50;;;;;;;5.30;4.90;;;;;;;;;;6308292;22;20206;-90
2023/06/26 09:47:21;;;;;;;5.38;4.60;;;;;;;;;;6307615;22;20270;-90
2023/06/26 09:49:50;;;;;;;5.55;5.15;;;;;;;;;;6307884;22;20662;-89
2023/06/26 09:52:18;;;;;;;6.38;5.88;;;;;;;;;;6307916;22;20649;-88
2023/06/26 09:54:46;;;;;;;6.05;5.55;;;;;;;;;;6307828;22;20195;-88
2023/06/26 09:57:17;;;;;;;5.60;5.10;;;;;;;;;;6308480;22;20215;-90
2023/06/26 09:59:45;;;;;;;6.80;6.30;;;;;;;;;;6307785;22;20246;-90
2023/06/26 10:02:14;;;;;;;9.15;8.45;;;;;;;;;;6308452;22;20251;-89
2023/06/26 10:04:42;;;;;;;8.43;7.65;;;;;;;;;;6307944;22;20199;-89
2023/06/26 10:07:13;;;;;;;6.45;5.95;;;;;;;;;;6307782;22;20227;-91
2023/06/26 10:09:43;;;;;;;5.57;5.07;;;;;;;;;;6308076;22;20156;-90
2023/06/26 10:12:16;;;;;;;6.47;5.85;;;;;;;;;;6307994;22;20152;-90
2023/06/26 10:14:44;;;;;;;4.80;4.45;;;;;;;;;;6308029;22;20219;-92
2023/06/26 10:17:14;;;;;;;6.15;5.65;;;;;;;;;;6308767;22;20215;-93
2023/06/26 10:19:46;;;;;;;5.55;5.05;;;;;;;;;;6308520;22;20152;-92
2023/06/26 10:22:18;;;;;;;5.82;5.32;;;;;;;;;;6307991;22;20174;-90
2023/06/26 10:24:48;;;;;;;6.53;5.93;;;;;;;;;;6308244;22;20255;-91
2023/06/26 10:27:20;;;;;;;6.18;5.10;;;;;;;;;;6307272;22;20670;-90
2023/06/26 10:29:55;;;;;;;5.07;4.63;;;;;;;;;;6307473;22;20198;-90
2023/06/26 10:32:27;;;;;;;5.55;5.15;;;;;;;;;;6307674;22;20198;-89
2023/06/26 10:34:55;;;;;;;4.30;4.00;;;;;;;;;;6307451;22;20213;-90
2023/06/26 10:37:27;;;;;;;5.30;4.80;;;;;;;;;;6307468;22;20231;-89
2023/06/26 10:39:55;;;;;;;5.38;4.88;;;;;;;;;;6307669;22;20215;-91
2023/06/26 10:42:37;;;;;;;5.20;4.13;;;;;;;;;;6307415;22;20187;-91
2023/06/26 10:45:12;;;;;;;9.68;5.95;;;;;;;;;;6307326;22;20202;-90
2023/06/26 10:48:16;;;;;;;9.32;6.18;;;;;;;;;;6306770;22;20191;-90
2023/06/26 10:50:44;;;;;;;6.00;5.47;;;;;;;;;;6307557;22;20164;-91
2023/06/26 10:53:24;;;;;;;5.95;4.90;;;;;;;;;;6307264;22;20217;-89
2023/06/26 10:55:57;;;;;;;8.38;4.53;;;;;;;;;;6307340;22;20282;-89
2023/06/26 10:58:43;;;;;;;8.70;5.40;;;;;;;;;;6307848;22;20159;-90
2023/06/26 11:01:23;;;;;;;5.55;4.65;;;;;;;;;;6307774;22;20178;-90
2023/06/26 11:04:06;;;;;;;5.05;4.60;;;;;;;;;;6307649;22;20162;-88
2023/06/26 11:06:35;;;;;;;6.63;6.03;;;;;;;;;;6307153;22;20646;-90
2023/06/26 11:09:10;;;;;;;5.70;5.20;;;;;;;;;;6307473;22;20178;-90
2023/06/26 11:12:07;;;;;;;5.80;4.90;;;;;;;;;;6307384;22;20163;-91
2023/06/26 11:14:34;;;;;;;5.03;4.63;;;;;;;;;;6307405;22;20175;-92
2023/06/26 11:17:06;;;;;;;5.50;5.00;;;;;;;;;;6307382;22;20718;-91
2023/06/26 11:19:35;;;;;;;4.90;4.50;;;;;;;;;;6307611;22;20167;-90
2023/06/26 11:39:32;;;;;;;7.07;6.39;;;;;;;;;;6266676;22;6289500;-92
2023/06/26 11:42:03;;;;;;;7.20;6.18;;;;;;;;;;6221846;23;20378;-92
2023/06/26 11:45:06;;;;;;;5.85;5.35;;;;;;;;;;6222541;23;20146;-93
2023/06/26 12:01:52;;;;;;;5.72;5.22;;;;;;;;;;6232412;22;20188;-86
2023/06/26 12:04:20;;;;;;;8.32;5.28;;;;;;;;;;6256676;23;20183;-86
2023/06/26 12:06:51;;;;;;;5.18;4.78;;;;;;;;;;6255950;23;20172;-86
2023/06/26 12:09:20;;;;;;;6.55;5.35;;;;;;;;;;6256469;23;20528;-85
2023/06/26 12:11:52;;;;;;;4.97;4.57;;;;;;;;;;6267361;22;20198;-87
2023/06/26 12:14:21;;;;;;;6.55;5.28;;;;;;;;;;6287097;22;20180;-85
2023/06/26 12:16:50;;;;;;;6.05;5.53;;;;;;;;;;6286290;22;20563;-86
2023/06/26 12:19:18;;;;;;;8.07;7.28;;;;;;;;;;6286345;22;20172;-86
2023/06/26 12:21:51;;;;;;;7.13;6.53;;;;;;;;;;6285797;22;20227;-85
2023/06/26 12:24:22;;;;;;;7.07;6.38;;;;;;;;;;6286188;22;20646;-86
2023/06/26 12:26:53;;;;;;;7.80;6.72;;;;;;;;;;6284413;22;20176;-86
2023/06/26 12:29:21;;;;;;;7.10;6.50;;;;;;;;;;6285885;22;20160;-87
2023/06/26 12:31:53;;;;;;;8.13;6.50;;;;;;;;;;6286012;22;20191;-87
2023/06/26 12:34:28;;;;;;;7.97;7.38;;;;;;;;;;6280058;22;20160;-86
2023/06/26 12:37:00;;;;;;;9.27;6.95;;;;;;;;;;6279599;22;20158;-87
2023/06/26 12:39:27;;;;;;;8.18;7.45;;;;;;;;;;6278588;22;20164;-85
2023/06/26 12:41:58;;;;;;;7.38;6.78;;;;;;;;;;6278924;22;20192;-84
2023/06/26 12:44:28;;;;;;;8.13;7.38;;;;;;;;;;6280530;22;20259;-87
2023/06/26 12:47:00;;;;;;;9.98;7.28;;;;;;;;;;6279559;22;20211;-85
2023/06/26 12:49:35;;;;;;;8.27;7.35;;;;;;;;;;6278621;22;20157;-84
2023/06/26 12:52:05;;;;;;;8.68;7.88;;;;;;;;;;6278536;22;20275;-86
2023/06/26 12:54:33;;;;;;;6.15;5.65;;;;;;;;;;6280026;22;20279;-86
2023/06/26 12:57:01;;;;;;;6.22;5.63;;;;;;;;;;6279026;22;20476;-85
2023/06/26 12:59:28;;;;;;;6.32;5.82;;;;;;;;;;6280244;22;20211;-85
2023/06/26 13:01:57;;;;;;;6.78;6.18;;;;;;;;;;6278574;22;20235;-86
2023/06/26 13:04:25;;;;;;;7.57;6.88;;;;;;;;;;6278355;22;20497;-86
2023/06/26 13:06:54;;;;;;;7.65;6.95;;;;;;;;;;6279895;22;20204;-84
2023/06/26 13:09:22;;;;;;;6.70;6.18;;;;;;;;;;6280207;22;20515;-85
2023/06/26 13:11:49;;;;;;;7.53;6.75;;;;;;;;;;6280200;22;20287;-86
2023/06/26 13:14:18;;;;;;;8.13;7.25;;;;;;;;;;6282042;22;20172;-85
2023/06/26 13:16:45;;;;;;;6.57;5.97;;;;;;;;;;6279631;22;20161;-85
2023/06/26 13:19:14;;;;;;;6.22;5.60;;;;;;;;;;6278770;22;20211;-86
2023/06/26 13:21:42;;;;;;;7.13;5.85;;;;;;;;;;6279312;22;20197;-83
2023/06/26 13:24:10;;;;;;;6.85;6.35;;;;;;;;;;6278395;22;20246;-85
2023/06/26 13:26:37;;;;;;;7.70;7.00;;;;;;;;;;6279057;22;20177;-85
2023/06/26 13:29:05;;;;;;;8.68;6.25;;;;;;;;;;6277085;22;20231;-86
2023/06/26 13:31:32;;;;;;;8.43;6.90;;;;;;;;;;6279180;22;20270;-85
2023/06/26 13:34:02;;;;;;;6.47;5.85;;;;;;;;;;6278601;22;20199;-86
2023/06/26 13:36:34;;;;;;;6.00;5.47;;;;;;;;;;6278866;22;20173;-87
2023/06/26 13:39:02;;;;;;;5.13;4.63;;;;;;;;;;6278409;22;20156;-86
2023/06/26 13:41:29;;;;;;;4.97;4.63;;;;;;;;;;6279206;22;20245;-87
2023/06/26 13:43:57;;;;;;;5.18;4.78;;;;;;;;;;6279166;22;20196;-85
2023/06/26 13:46:24;;;;;;;4.60;4.20;;;;;;;;;;6277846;22;20204;-86
2023/06/26 13:48:52;;;;;;;5.55;5.05;;;;;;;;;;6278032;22;20208;-87
2023/06/26 13:51:19;;;;;;;5.47;5.03;;;;;;;;;;6276970;22;20196;-86
2023/06/26 13:53:48;;;;;;;4.65;4.25;;;;;;;;;;6277604;22;20207;-86
2023/06/26 13:56:17;;;;;;;4.38;4.00;;;;;;;;;;6278544;22;20183;-85
2023/06/26 13:58:45;;;;;;;5.20;4.25;;;;;;;;;;6278987;22;20216;-85
2023/06/26 14:01:13;;;;;;;4.28;3.85;;;;;;;;;;6279598;22;20323;-87
2023/06/26 14:03:41;;;;;;;3.90;3.60;;;;;;;;;;6279226;22;20752;-85
2023/06/26 14:06:08;;;;;;;3.95;3.15;;;;;;;;;;6279439;22;20203;-84
2023/06/26 14:08:36;;;;;;;4.05;3.63;;;;;;;;;;6279065;22;20211;-85
2023/06/26 14:11:05;;;;;;;4.00;3.67;;;;;;;;;;6278267;22;20679;-86
2023/06/26 14:13:32;;;;;;;3.15;2.95;;;;;;;;;;6278700;22;20841;-85
2023/06/26 14:16:00;;;;;;;3.67;3.38;;;;;;;;;;6277003;22;20208;-85
2023/06/26 14:18:27;;;;;;;2.58;2.38;;;;;;;;;;6276374;22;20216;-86
2023/06/26 14:20:55;;;;;;;3.10;2.90;;;;;;;;;;6277800;22;20259;-85
2023/06/26 14:23:22;;;;;;;2.88;2.47;;;;;;;;;;6277377;22;20279;-85
2023/06/26 14:25:50;;;;;;;3.58;3.28;;;;;;;;;;6277416;22;20255;-86
2023/06/26 14:28:19;;;;;;;3.22;2.95;;;;;;;;;;6277334;22;20200;-85
2023/06/26 14:30:46;;;;;;;3.17;2.88;;;;;;;;;;6277821;22;20176;-85
2023/06/26 14:33:13;;;;;;;3.30;2.70;;;;;;;;;;6277144;22;20195;-87
2023/06/26 14:35:41;;;;;;;3.33;3.03;;;;;;;;;;6278434;22;20204;-85
2023/06/26 14:38:08;;;;;;;5.43;2.83;;;;;;;;;;6276926;22;20176;-84
2023/06/26 14:40:36;;;;;;;3.63;3.17;;;;;;;;;;6276286;22;20207;-85
2023/06/26 14:43:03;;;;;;;3.17;2.70;;;;;;;;;;6277067;22;20271;-85
2023/06/26 14:45:33;;;;;;;2.78;2.50;;;;;;;;;;6276359;22;20562;-86
2023/06/26 14:48:01;;;;;;;3.25;2.85;;;;;;;;;;6276245;22;20211;-85
2023/06/26 14:50:28;;;;;;;5.53;2.85;;;;;;;;;;6277495;22;20180;-85
2023/06/26 14:52:59;;;;;;;3.03;2.55;;;;;;;;;;6277510;22;20267;-85
2023/06/26 14:55:39;;;;;;;3.03;2.70;;;;;;;;;;6277109;22;20167;-85
2023/06/26 14:58:07;;;;;;;2.92;2.65;;;;;;;;;;6276663;22;20163;-85
2023/06/26 15:00:36;;;;;;;4.50;3.15;;;;;;;;;;6276535;22;20182;-85
2023/06/26 15:03:03;;;;;;;5.75;3.63;;;;;;;;;;6276593;22;20283;-85
2023/06/26 15:05:32;;;;;;;2.60;2.47;;;;;;;;;;6277398;22;20278;-86
2023/06/26 15:07:59;;;;;;;3.83;2.80;;;;;;;;;;6277623;22;20203;-85
2023/06/26 15:10:26;;;;;;;3.42;2.95;;;;;;;;;;6276387;22;20226;-86
2023/06/26 15:12:54;;;;;;;3.47;2.95;;;;;;;;;;6277269;22;20230;-87
2023/06/26 15:15:22;;;;;;;2.80;2.60;;;;;;;;;;6277471;22;20539;-85
2023/06/26 15:17:51;;;;;;;2.70;2.50;;;;;;;;;;6277493;22;20172;-85
2023/06/26 15:20:18;;;;;;;3.85;3.05;;;;;;;;;;6277451;22;20203;-85
2023/06/26 15:22:46;;;;;;;6.55;3.97;;;;;;;;;;6276514;22;20219;-88
2023/06/26 15:25:15;;;;;;;2.67;2.22;;;;;;;;;;6277677;22;20276;-87
2023/06/26 15:27:43;;;;;;;3.25;2.92;;;;;;;;;;6278132;22;20196;-87
2023/06/26 15:30:11;;;;;;;3.33;2.95;;;;;;;;;;6278418;22;20670;-85
2023/06/26 15:32:39;;;;;;;2.45;2.25;;;;;;;;;;6276701;22;20198;-89
2023/06/26 15:35:09;;;;;;;3.55;3.25;;;;;;;;;;6277587;22;20626;-84
2023/06/26 15:37:38;;;;;;;2.63;2.35;;;;;;;;;;6277109;22;20251;-86
2023/06/26 15:40:07;;;;;;;3.65;2.70;;;;;;;;;;6277641;22;20176;-88
2023/06/26 15:42:40;;;;;;;3.40;3.10;;;;;;;;;;6277536;22;20288;-89
2023/06/26 15:45:08;;;;;;;3.97;3.15;;;;;;;;;;6278523;22;20242;-87
2023/06/26 15:47:36;;;;;;;4.03;2.85;;;;;;;;;;6277709;22;20177;-87
2023/06/26 15:50:03;;;;;;;2.63;2.42;;;;;;;;;;6277411;22;20196;-86
2023/06/26 16:39:19;;;;;;;1.65;1.55;;;;;;;;;;6217287;22;20204;-88
2023/06/26 16:41:49;;;;;;;1.23;1.13;;;;;;;;;;6218331;23;20495;-90
2023/06/26 16:44:16;;;;;;;1.45;1.35;;;;;;;;;;6217883;23;20204;-87
2023/06/26 16:46:44;;;;;;;2.08;1.63;;;;;;;;;;6200682;23;20226;-89
2023/06/26 16:49:11;;;;;;;2.92;1.77;;;;;;;;;;6187886;23;20229;-90
2023/06/26 16:51:39;;;;;;;3.55;1.95;;;;;;;;;;6187032;23;20210;-87
2023/06/26 16:54:06;;;;;;;1.63;1.35;;;;;;;;;;6187775;23;20184;-91
2023/06/26 16:56:35;;;;;;;1.63;1.52;;;;;;;;;;6187256;23;20230;-89
2023/06/26 16:59:03;;;;;;;1.60;1.50;;;;;;;;;;6187324;23;20193;-90
2023/06/26 17:01:30;;;;;;;1.83;1.38;;;;;;;;;;6187556;23;20559;-91
2023/06/26 17:03:58;;;;;;;6.53;3.00;;;;;;;;;;6187884;23;20233;-89
2023/06/26 17:06:25;;;;;;;1.63;1.48;;;;;;;;;;6186807;23;20198;-90
2023/06/26 17:08:53;;;;;;;1.60;1.50;;;;;;;;;;6188383;23;20261;-91
2023/06/26 17:11:20;;;;;;;2.75;1.50;;;;;;;;;;6187882;23;20174;-90
2023/06/26 17:13:50;;;;;;;1.60;1.30;;;;;;;;;;6187618;23;20199;-90
2023/06/26 17:16:18;;;;;;;1.95;1.10;;;;;;;;;;6187688;23;20689;-89
2023/06/26 17:18:45;;;;;;;2.15;1.60;;;;;;;;;;6187917;23;20262;-89
2023/06/26 17:21:13;;;;;;;1.67;1.35;;;;;;;;;;6187298;23;20193;-89
2023/06/26 17:23:40;;;;;;;1.55;1.45;;;;;;;;;;6186569;23;20486;-88
2023/06/26 17:26:08;;;;;;;2.47;1.60;;;;;;;;;;6185914;23;20225;-88
2023/06/26 17:28:36;;;;;;;2.03;1.83;;;;;;;;;;6187608;23;20179;-88
2023/06/26 17:31:05;;;;;;;1.58;1.25;;;;;;;;;;6187727;23;20240;-88
2023/06/26 17:33:32;;;;;;;1.38;1.20;;;;;;;;;;6186977;23;20253;-87
2023/06/26 17:36:00;;;;;;;1.80;1.70;;;;;;;;;;6187034;23;20195;-89
2023/06/26 17:38:29;;;;;;;2.05;1.88;;;;;;;;;;6185844;23;20661;-86
2023/06/26 17:40:56;;;;;;;2.03;1.40;;;;;;;;;;6186970;23;20513;-90
2023/06/26 17:44:03;;;;;;;1.73;1.63;;;;;;;;;;6187157;23;20598;-90
2023/06/26 17:46:32;;;;;;;1.50;1.40;;;;;;;;;;6186369;23;20713;-88
2023/06/26 17:48:59;;;;;;;1.70;1.60;;;;;;;;;;6187296;23;20257;-89
2023/06/26 17:51:27;;;;;;;2.08;1.35;;;;;;;;;;6187296;23;20206;-90
2023/06/26 17:53:54;;;;;;;2.17;1.23;;;;;;;;;;6187482;23;20202;-90
2023/06/26 17:56:22;;;;;;;1.42;1.20;;;;;;;;;;6186166;23;20213;-86
2023/06/26 17:58:50;;;;;;;1.63;1.50;;;;;;;;;;6187175;23;20190;-88
2023/06/26 18:01:18;;;;;;;4.55;1.15;;;;;;;;;;6189681;23;20209;-87
2023/06/26 18:03:47;;;;;;;1.45;1.10;;;;;;;;;;6189356;23;20202;-87
2023/06/26 18:06:19;;;;;;;1.27;1.08;;;;;;;;;;6189222;23;20250;-88
2023/06/26 18:08:47;;;;;;;1.48;1.38;;;;;;;;;;6189857;23;20181;-88
2023/06/26 18:11:14;;;;;;;1.33;1.25;;;;;;;;;;6188727;23;20220;-87
2023/06/26 18:13:42;;;;;;;1.13;1.08;;;;;;;;;;6189539;23;20194;-88
2023/06/26 18:16:09;;;;;;;1.40;1.30;;;;;;;;;;6188839;23;20229;-87
2023/06/26 18:18:39;;;;;;;1.23;1.17;;;;;;;;;;6189221;23;20174;-88
2023/06/26 18:21:08;;;;;;;1.38;1.27;;;;;;;;;;6189174;23;20202;-88
2023/06/26 18:23:36;;;;;;;1.23;1.23;;;;;;;;;;6189441;23;20582;-89
2023/06/26 18:26:03;;;;;;;1.10;1.10;;;;;;;;;;6189135;23;20194;-88
2023/06/26 18:28:31;;;;;;;1.67;1.30;;;;;;;;;;6189540;23;20224;-90
2023/06/26 18:30:58;;;;;;;1.77;1.50;;;;;;;;;;6188730;23;20269;-88
2023/06/26 18:33:28;;;;;;;1.88;1.20;;;;;;;;;;6189059;23;20269;-90
2023/06/26 18:35:55;;;;;;;1.05;0.90;;;;;;;;;;6188846;23;20204;-89
2023/06/26 18:38:24;;;;;;;1.73;1.63;;;;;;;;;;6188870;23;20177;-89
2023/06/26 18:40:52;;;;;;;1.17;1.08;;;;;;;;;;6188980;23;20233;-88
2023/06/26 18:43:20;;;;;;;5.22;1.25;;;;;;;;;;6187962;23;20174;-88
2023/06/26 18:45:49;;;;;;;3.38;1.10;;;;;;;;;;6187344;23;20221;-88
2023/06/26 18:48:17;;;;;;;1.00;1.00;;;;;;;;;;6189029;23;20170;-88
2023/06/26 18:50:44;;;;;;;0.90;0.90;;;;;;;;;;6189298;23;20206;-90
2023/06/26 18:53:12;;;;;;;1.15;1.10;;;;;;;;;;6188285;23;20565;-88
2023/06/26 18:55:40;;;;;;;3.15;1.10;;;;;;;;;;6187737;23;20179;-89
2023/06/26 18:58:08;;;;;;;1.58;1.50;;;;;;;;;;6188950;23;20174;-89
2023/06/26 19:00:36;;;;;;;2.33;1.10;;;;;;;;;;6189819;23;20174;-90
2023/06/26 19:03:04;;;;;;;1.58;1.33;;;;;;;;;;6189722;23;20209;-88
2023/06/26 19:05:31;;;;;;;2.45;1.60;;;;;;;;;;6189241;23;20220;-88
2023/06/26 19:07:58;;;;;;;2.08;1.08;;;;;;;;;;6188830;23;20174;-86
2023/06/26 19:10:26;;;;;;;0.93;0.93;;;;;;;;;;6189071;23;20220;-89
2023/06/26 19:12:56;;;;;;;1.10;1.10;;;;;;;;;;6188683;23;20770;-88
2023/06/26 19:15:24;;;;;;;2.17;1.40;;;;;;;;;;6189741;23;20253;-89
2023/06/26 19:17:51;;;;;;;0.77;0.77;;;;;;;;;;6190081;23;20206;-88
2023/06/26 19:20:19;;;;;;;1.00;0.98;;;;;;;;;;6188920;23;20574;-87
2023/06/26 19:22:48;;;;;;;1.77;1.00;;;;;;;;;;6189566;23;20178;-88
2023/06/26 19:25:15;;;;;;;0.95;0.95;;;;;;;;;;6188918;23;20558;-87
2023/06/26 19:27:44;;;;;;;1.23;1.15;;;;;;;;;;6187703;23;20262;-87
2023/06/26 19:30:14;;;;;;;1.02;1.00;;;;;;;;;;6189632;23;20182;-87
2023/06/26 19:32:42;;;;;;;1.27;1.17;;;;;;;;;;6189064;23;20228;-88
2023/06/26 19:35:10;;;;;;;1.55;1.40;;;;;;;;;;6187535;23;20171;-87
2023/06/26 19:37:38;;;;;;;0.90;0.90;;;;;;;;;;6187183;23;20199;-88
2023/06/26 19:40:08;;;;;;;4.45;1.20;;;;;;;;;;6188106;23;20194;-85
2023/06/26 19:42:35;;;;;;;1.30;1.20;;;;;;;;;;6188518;23;20159;-88
2023/06/26 19:45:03;;;;;;;1.83;1.27;;;;;;;;;;6190462;23;20178;-88
2023/06/26 19:47:33;;;;;;;2.88;1.42;;;;;;;;;;6191297;23;20232;-88
2023/06/26 19:50:01;;;;;;;2.72;1.38;;;;;;;;;;6191129;23;20176;-89
2023/06/26 19:52:30;;;;;;;1.33;1.23;;;;;;;;;;6190594;23;20233;-87
2023/06/26 19:54:57;;;;;;;2.00;1.20;;;;;;;;;;6190974;23;20185;-89
2023/06/26 19:57:25;;;;;;;0.80;0.80;;;;;;;;;;6193971;23;20218;-81
2023/06/26 19:59:52;;;;;;;2.15;1.10;;;;;;;;;;6193512;23;20231;-82
2023/06/26 20:02:20;;;;;;;1.95;1.65;;;;;;;;;;6194142;23;20178;-82
2023/06/26 20:04:49;;;;;;;1.30;1.20;;;;;;;;;;6194516;23;20526;-82
2023/06/26 20:07:16;;;;;;;1.25;1.15;;;;;;;;;;6193365;23;20535;-83
2023/06/26 20:09:44;;;;;;;1.50;1.20;;;;;;;;;;6193008;23;20660;-81
2023/06/26 20:12:11;;;;;;;2.55;1.10;;;;;;;;;;6192487;23;20253;-79
2023/06/26 20:14:39;;;;;;;1.15;1.00;;;;;;;;;;6193146;23;20209;-80
2023/06/26 20:17:06;;;;;;;2.08;1.35;;;;;;;;;;6192966;23;20269;-84
2023/06/26 20:19:34;;;;;;;1.42;1.00;;;;;;;;;;6193032;23;20234;-84
2023/06/26 20:22:03;;;;;;;1.30;1.20;;;;;;;;;;6192080;23;20261;-82